Aviation Digital Data Service (ADDS)

Output produced by METARs form (0530 UTC 19 February 2019)
found at http://www.aviationweather.gov/metar/data/
 
Forecast for: ZGKL (GUILIN , CN)
Text: TAF ZGKL 190312Z 1906/2006 05003MPS 7000 FEW011 SCT023 OVC036 TX07/1907Z TN05/1922Z
Forecast period: 0600 UTC 19 February 2019 to 0600 UTC 20 February 2019
Forecast type: FROM: standard forecast or significant change
Winds: from the NE (50 degrees) at 7 MPH (6 knots; 3.1 m/s)
Visibility: 4 miles (7 km)
Ceiling: 3600 feet AGL
Clouds: few clouds at 1100 feet AGL
scattered clouds at 2300 feet AGL
overcast cloud deck at 3600 feet AGL
Weather: no significant weather forecast for this period